Autoridad de Aeronautica Civil de Panamá***
**


taf




 

AERÓDROMOS

 

PRONOSTICO DE AERÓDROMO
TAF

AEROPUERTO INTL. DE TOCUMEN:


TAF MPTO 251100Z 2512/2618 20006KT 9999 SCT018 TEMPO 2518/2522 6000 TSRA SCT015CB BKN080 TEMPO 2523/2603 03007KT NSW TEMPO 2606/2609 00000KT=
AEROPUERTO MARCOS A. GELABERT:


TAF MPMG 251100Z 2512/2524 18006KT 9999 SCT018 TEMPO 2518/2522 6000 TSRA SCT016CB BKN070 TEMPO 2523/2524 34006KT NSW=
AEROPUERTO ENRIQUE MALEK:


TAF MPDA 251100Z 2512/2524 20006KT 9999 SCT018 TEMPO 2521/2524 6000 TSRA SCT015CB BKN080=
AEROPUERTO PANAMA PACIFICO:


TAF MPPA 251100Z 2512/2618 19006KT 9999 SCT018 TEMPO 2518/2522 6000 TSRA SCT015CB BKN080 TEMPO 2523/2603 02007KT NSW TEMPO 2604/2608 00000KT=
AEROPUERTO SCARLETT MARTÍNEZ:


TAF MPSM 251100Z 2512/2618 16006KT 9999 SCT018 TEMPO 2520/2524 6000 TSRA SCT014CB BKN090 TEMPO 2600/2602 NSW TEMPO 2604/2608 00000KT TEMPO 2612/2614 35006KT=


Contador: 8864